Time;durP1;ratioP1;P1;durP2;ratioP2;P2;SDS_P1;SDS_P2;PMS_P1;PMS_P2;Temp;Humidity;BMP_temperature;BMP_pressure;BME280_temperature;BME280_humidity;BME280_pressure;Samples;Min_cycle;Max_cycle;Signal;HPM_P1;HPM_P2
2020/12/10 00:00:11;;;;;;;29.00;15.90;;;-0.30;86.20;;;;;;4998858;28;20200;-82
2020/12/10 00:02:56;;;;;;;36.73;18.53;;;-0.30;86.50;;;;;;4998784;28;20194;-82
2020/12/10 00:05:24;;;;;;;30.07;17.93;;;-0.40;86.60;;;;;;4994023;28;20236;-83
2020/12/10 00:07:53;;;;;;;36.63;19.70;;;-0.30;86.50;;;;;;4983332;28;20390;-82
2020/12/10 00:10:21;;;;;;;31.30;19.03;;;-0.40;86.80;;;;;;4978038;28;20198;-82
2020/12/10 00:12:49;;;;;;;39.43;20.00;;;-0.40;86.90;;;;;;4974390;28;20691;-82
2020/12/10 00:15:17;;;;;;;21.97;12.00;;;-0.40;87.00;;;;;;4991207;28;20211;-84
2020/12/10 00:17:45;;;;;;;28.93;15.97;;;-0.40;87.00;;;;;;4985663;28;20687;-81
2020/12/10 00:20:14;;;;;;;26.77;15.13;;;-0.40;87.20;;;;;;4976466;28;20206;-83
2020/12/10 00:22:45;;;;;;;28.13;17.60;;;-0.40;87.30;;;;;;4980086;28;20307;-81
2020/12/10 00:25:13;;;;;;;32.50;16.47;;;-0.40;87.30;;;;;;4986707;28;20264;-81
2020/12/10 00:27:41;;;;;;;30.10;16.23;;;-0.50;87.40;;;;;;4996726;28;20204;-81
2020/12/10 00:30:10;;;;;;;29.27;15.63;;;-0.50;87.50;;;;;;4994561;28;20201;-82
2020/12/10 00:32:39;;;;;;;33.60;17.33;;;-0.50;87.50;;;;;;4971514;28;20196;-82
2020/12/10 00:35:11;;;;;;;31.60;17.23;;;-0.50;87.70;;;;;;4981714;28;20470;-81
2020/12/10 00:37:39;;;;;;;22.27;12.97;;;-0.50;87.70;;;;;;4986819;28;20272;-82
2020/12/10 00:40:10;;;;;;;25.67;14.07;;;-0.50;87.70;;;;;;4992117;28;20208;-81
2020/12/10 00:42:38;;;;;;;29.10;16.73;;;-0.60;87.80;;;;;;4989645;28;20208;-82
2020/12/10 00:45:07;;;;;;;26.27;15.47;;;-0.50;87.80;;;;;;4988700;28;20209;-84
2020/12/10 00:47:35;;;;;;;31.10;17.83;;;-0.50;87.90;;;;;;4982546;28;20200;-83
2020/12/10 00:50:04;;;;;;;29.07;17.03;;;-0.40;87.90;;;;;;4978763;28;20200;-82
2020/12/10 00:52:33;;;;;;;28.80;17.13;;;-0.40;87.90;;;;;;4975263;28;20575;-84
2020/12/10 00:55:04;;;;;;;27.60;14.80;;;-0.50;88.00;;;;;;4976166;28;20201;-83
2020/12/10 00:57:32;;;;;;;28.00;16.03;;;-0.50;88.00;;;;;;4990083;28;20203;-82
2020/12/10 01:00:00;;;;;;;29.50;16.53;;;-0.50;88.00;;;;;;4994011;28;20220;-83
2020/12/10 01:02:29;;;;;;;28.17;15.57;;;-0.50;88.10;;;;;;4982346;28;20216;-83
2020/12/10 01:04:57;;;;;;;27.90;16.83;;;-0.50;88.20;;;;;;4997841;28;20205;-82
2020/12/10 01:07:25;;;;;;;25.27;15.23;;;-0.40;88.30;;;;;;5005865;28;20220;-84
2020/12/10 01:09:53;;;;;;;24.37;11.63;;;-0.40;88.30;;;;;;4997428;28;20192;-81
2020/12/10 01:12:21;;;;;;;26.87;16.23;;;-0.40;88.30;;;;;;4985069;28;20228;-81
2020/12/10 01:14:49;;;;;;;25.67;15.43;;;-0.40;88.30;;;;;;4983330;28;20212;-82
2020/12/10 01:17:17;;;;;;;29.57;15.80;;;-0.30;88.40;;;;;;4996524;28;20201;-81
2020/12/10 01:19:45;;;;;;;26.93;14.83;;;-0.40;88.50;;;;;;4992801;28;20267;-84
2020/12/10 01:22:15;;;;;;;28.20;15.27;;;-0.40;88.50;;;;;;4991135;28;20279;-82
2020/12/10 01:24:43;;;;;;;25.97;14.80;;;-0.40;88.50;;;;;;4983057;28;20221;-83
2020/12/10 01:27:11;;;;;;;23.97;14.43;;;-0.40;88.60;;;;;;5000375;28;20799;-81
2020/12/10 01:29:40;;;;;;;22.27;14.10;;;-0.40;88.70;;;;;;4986679;28;20686;-83
2020/12/10 01:32:09;;;;;;;26.27;13.83;;;-0.40;88.70;;;;;;4985831;28;20219;-81
2020/12/10 01:34:36;;;;;;;19.67;9.43;;;-0.40;88.70;;;;;;4985779;28;20205;-83
2020/12/10 01:37:06;;;;;;;24.07;13.93;;;-0.30;88.90;;;;;;4985427;28;20211;-83
2020/12/10 01:39:35;;;;;;;22.57;15.13;;;-0.30;88.80;;;;;;5006320;28;20185;-82
2020/12/10 01:42:03;;;;;;;20.73;12.53;;;-0.30;89.00;;;;;;4991027;28;20273;-82
2020/12/10 01:44:31;;;;;;;22.13;12.83;;;-0.30;89.00;;;;;;4997656;28;20181;-81
2020/12/10 01:47:04;;;;;;;21.07;11.70;;;-0.30;89.10;;;;;;4981763;28;20230;-82
2020/12/10 01:49:35;;;;;;;19.27;10.70;;;-0.30;89.00;;;;;;5007007;28;20197;-81
2020/12/10 01:52:05;;;;;;;24.53;12.47;;;-0.30;89.00;;;;;;4992598;28;20180;-82
2020/12/10 01:54:34;;;;;;;27.27;14.40;;;-0.30;89.00;;;;;;5001622;28;20178;-82
2020/12/10 01:57:02;;;;;;;22.03;13.83;;;-0.10;89.20;;;;;;4993763;28;20264;-81
2020/12/10 01:59:31;;;;;;;18.67;11.53;;;-0.30;89.20;;;;;;4981555;28;20190;-82
2020/12/10 02:02:01;;;;;;;21.53;13.03;;;-0.30;89.30;;;;;;4999612;28;20282;-82
2020/12/10 02:04:33;;;;;;;24.80;13.43;;;-0.30;89.30;;;;;;5009654;28;20265;-81
2020/12/10 02:07:02;;;;;;;25.30;14.13;;;-0.20;89.50;;;;;;4997133;28;20247;-81
2020/12/10 02:09:30;;;;;;;22.13;12.00;;;-0.20;89.60;;;;;;5002712;28;20202;-82
2020/12/10 02:11:57;;;;;;;24.37;14.17;;;-0.20;89.60;;;;;;4977720;28;20186;-82
2020/12/10 02:14:34;;;;;;;23.70;14.33;;;-0.20;89.70;;;;;;4993656;28;20206;-83
2020/12/10 02:17:07;;;;;;;23.87;13.13;;;-0.20;89.80;;;;;;4994889;28;20471;-81
2020/12/10 02:19:35;;;;;;;27.60;14.27;;;-0.20;89.70;;;;;;4997809;28;20286;-84
2020/12/10 02:22:03;;;;;;;24.93;13.20;;;-0.30;89.70;;;;;;4985528;28;20197;-82
2020/12/10 02:24:32;;;;;;;25.17;14.07;;;-0.20;89.80;;;;;;4990313;28;20190;-82
2020/12/10 02:27:01;;;;;;;26.50;14.03;;;-0.20;89.90;;;;;;4990077;28;20233;-80
2020/12/10 02:29:31;;;;;;;18.33;9.70;;;-0.20;90.00;;;;;;4988103;28;20228;-82
2020/12/10 02:32:02;;;;;;;24.57;12.93;;;-0.10;90.00;;;;;;4986610;28;20485;-83
2020/12/10 02:34:32;;;;;;;26.33;14.90;;;-0.10;90.00;;;;;;4975040;28;20208;-82
2020/12/10 02:37:01;;;;;;;28.80;14.37;;;-0.10;90.10;;;;;;4986347;28;20572;-82
2020/12/10 02:39:29;;;;;;;30.23;14.70;;;-0.20;90.10;;;;;;4986762;28;20588;-80
2020/12/10 02:41:58;;;;;;;24.37;13.77;;;-0.20;90.20;;;;;;4997421;28;20652;-83
2020/12/10 02:44:26;;;;;;;17.37;11.50;;;-0.20;90.20;;;;;;4996532;28;20233;-82
2020/12/10 02:46:54;;;;;;;23.43;14.70;;;-0.20;90.20;;;;;;4983837;28;20716;-82
2020/12/10 02:49:22;;;;;;;23.23;12.90;;;-0.20;90.20;;;;;;5001680;28;20290;-82
2020/12/10 02:51:49;;;;;;;25.00;14.40;;;-0.20;90.30;;;;;;4993150;28;20197;-82
2020/12/10 02:54:17;;;;;;;19.10;9.23;;;-0.20;90.30;;;;;;4986628;28;20223;-80
2020/12/10 02:56:45;;;;;;;24.87;15.30;;;-0.20;90.40;;;;;;5000655;28;20175;-84
2020/12/10 02:59:16;;;;;;;20.23;9.47;;;-0.20;90.50;;;;;;4992768;28;20217;-82
2020/12/10 03:01:44;;;;;;;28.97;16.47;;;-0.20;90.50;;;;;;4987519;28;20814;-81
2020/12/10 03:04:12;;;;;;;29.20;16.30;;;-0.30;90.50;;;;;;4996008;28;20205;-81
2020/12/10 03:06:40;;;;;;;28.07;15.40;;;-0.30;90.50;;;;;;5001809;28;20233;-83
2020/12/10 03:09:08;;;;;;;21.00;11.57;;;-0.20;90.60;;;;;;5012051;28;20365;-82
2020/12/10 03:11:35;;;;;;;30.50;16.90;;;-0.30;90.50;;;;;;4994874;28;20218;-81
2020/12/10 03:14:06;;;;;;;30.67;17.63;;;-0.30;90.50;;;;;;5007285;28;20272;-83
2020/12/10 03:16:35;;;;;;;31.83;17.87;;;-0.30;90.60;;;;;;4998379;28;20477;-83
2020/12/10 03:19:03;;;;;;;40.17;15.93;;;-0.30;90.60;;;;;;5010341;28;20280;-83
2020/12/10 03:21:30;;;;;;;30.43;15.70;;;-0.30;90.60;;;;;;5010303;28;20194;-82
2020/12/10 03:23:59;;;;;;;22.13;12.27;;;-0.30;90.60;;;;;;5009843;28;20224;-81
2020/12/10 03:26:27;;;;;;;33.43;15.37;;;-0.30;90.60;;;;;;5006672;28;20200;-80
2020/12/10 03:28:54;;;;;;;26.40;12.73;;;-0.40;90.60;;;;;;5001512;28;20192;-83
2020/12/10 03:31:22;;;;;;;34.70;18.70;;;-0.40;90.70;;;;;;4995980;28;20220;-82
2020/12/10 03:33:51;;;;;;;34.60;17.67;;;-0.40;90.70;;;;;;4991727;28;20209;-83
2020/12/10 03:36:19;;;;;;;36.50;19.50;;;-0.40;90.70;;;;;;4980927;28;20185;-82
2020/12/10 03:38:51;;;;;;;35.13;18.10;;;-0.40;90.70;;;;;;4991351;28;20188;-84
2020/12/10 03:41:19;;;;;;;36.47;19.47;;;-0.40;90.70;;;;;;5003158;28;20198;-82
2020/12/10 03:43:46;;;;;;;32.63;16.93;;;-0.40;90.60;;;;;;4996020;28;20193;-82
2020/12/10 03:46:14;;;;;;;26.67;13.77;;;-0.40;90.50;;;;;;5007608;28;20215;-82
2020/12/10 03:48:41;;;;;;;31.30;16.53;;;-0.30;90.30;;;;;;4998429;28;20198;-83
2020/12/10 03:51:10;;;;;;;32.93;16.47;;;-0.30;90.30;;;;;;4997625;28;20530;-82
2020/12/10 03:53:38;;;;;;;28.63;14.50;;;-0.30;90.20;;;;;;4985943;28;20225;-82
2020/12/10 03:56:05;;;;;;;24.27;10.53;;;-0.20;90.20;;;;;;4984660;28;20231;-82
2020/12/10 03:58:33;;;;;;;25.77;12.37;;;-0.20;90.10;;;;;;5000783;28;20178;-82
2020/12/10 04:01:00;;;;;;;35.77;17.50;;;-0.30;90.00;;;;;;5000332;28;20206;-83
2020/12/10 04:03:29;;;;;;;21.73;12.37;;;-0.20;90.00;;;;;;4998060;28;20233;-83
2020/12/10 04:05:57;;;;;;;29.67;14.53;;;-0.30;89.90;;;;;;5000449;28;20198;-81
2020/12/10 04:08:26;;;;;;;31.73;16.30;;;-0.30;89.90;;;;;;4985505;28;20201;-81
2020/12/10 04:10:54;;;;;;;35.00;16.50;;;-0.20;89.70;;;;;;4978476;28;20197;-83
2020/12/10 04:13:22;;;;;;;34.93;16.90;;;-0.20;89.70;;;;;;4984189;28;20382;-82
2020/12/10 04:15:50;;;;;;;30.63;16.10;;;-0.20;89.70;;;;;;4974516;28;20205;-82
2020/12/10 04:18:18;;;;;;;29.73;16.10;;;-0.20;89.60;;;;;;4987849;28;20201;-81
2020/12/10 04:20:47;;;;;;;32.93;16.40;;;-0.30;89.70;;;;;;4990183;28;20205;-83
2020/12/10 04:23:16;;;;;;;22.13;11.13;;;-0.30;89.70;;;;;;4982532;28;20211;-82
2020/12/10 04:25:49;;;;;;;29.33;15.20;;;-0.20;89.80;;;;;;4988897;28;20277;-84
2020/12/10 04:28:17;;;;;;;24.17;12.27;;;-0.30;89.70;;;;;;4982247;28;20208;-82
2020/12/10 04:30:46;;;;;;;29.07;14.43;;;-0.30;89.60;;;;;;4997039;28;20189;-83
2020/12/10 04:33:14;;;;;;;30.90;14.23;;;-0.30;89.60;;;;;;4996582;28;20208;-82
2020/12/10 04:35:43;;;;;;;32.50;16.77;;;-0.30;89.60;;;;;;5002096;28;20219;-82
2020/12/10 04:38:12;;;;;;;32.23;17.43;;;-0.30;89.60;;;;;;4993609;28;20184;-82
2020/12/10 04:40:40;;;;;;;31.53;17.07;;;-0.40;89.70;;;;;;5001837;28;20239;-81
2020/12/10 04:43:11;;;;;;;28.63;14.27;;;-0.30;89.80;;;;;;4976807;28;20355;-82
2020/12/10 04:45:39;;;;;;;33.33;16.93;;;-0.30;89.60;;;;;;4986433;28;20312;-83
2020/12/10 04:48:07;;;;;;;35.70;18.20;;;-0.40;89.50;;;;;;4980248;28;20250;-83
2020/12/10 04:50:38;;;;;;;35.80;18.23;;;-0.30;89.60;;;;;;4984068;28;20233;-82
2020/12/10 04:53:06;;;;;;;39.27;18.47;;;-0.40;89.20;;;;;;4982677;28;20200;-81
2020/12/10 04:55:34;;;;;;;33.67;17.57;;;-0.40;89.40;;;;;;4990369;28;20279;-83
2020/12/10 04:58:04;;;;;;;35.13;17.67;;;-0.40;89.20;;;;;;4973825;28;20201;-83
2020/12/10 05:00:33;;;;;;;37.67;18.57;;;-0.30;89.40;;;;;;4992669;28;20194;-80
2020/12/10 05:03:02;;;;;;;33.47;17.87;;;-0.40;89.30;;;;;;4984964;28;20218;-81
2020/12/10 05:05:33;;;;;;;34.33;18.17;;;-0.30;89.40;;;;;;5003815;28;20199;-82
2020/12/10 05:08:15;;;;;;;35.77;18.47;;;-0.40;89.50;;;;;;4993138;28;20208;-82
2020/12/10 05:10:44;;;;;;;38.57;19.20;;;-0.30;89.60;;;;;;5007392;28;20202;-83
2020/12/10 05:13:13;;;;;;;30.20;17.23;;;-0.40;89.60;;;;;;4998528;28;20205;-83
2020/12/10 05:15:42;;;;;;;31.03;14.80;;;-0.30;89.70;;;;;;4990723;28;20237;-83
2020/12/10 05:18:16;;;;;;;39.23;18.60;;;-0.30;89.70;;;;;;4995270;28;20197;-83
2020/12/10 05:20:47;;;;;;;26.10;16.13;;;-0.30;90.00;;;;;;5008204;28;20181;-82
2020/12/10 05:23:29;;;;;;;34.90;16.43;;;-0.40;89.70;;;;;;5004605;28;20212;-81
2020/12/10 05:25:57;;;;;;;28.17;14.43;;;-0.40;89.50;;;;;;4982665;28;20516;-82
2020/12/10 05:28:26;;;;;;;31.83;14.53;;;-0.40;89.50;;;;;;4980743;28;20354;-82
2020/12/10 05:31:06;;;;;;;39.73;18.47;;;-0.40;89.40;;;;;;4981567;28;20220;-84
2020/12/10 05:33:53;;;;;;;34.37;17.87;;;-0.50;89.50;;;;;;4988706;28;20544;-82
2020/12/10 05:36:21;;;;;;;39.57;18.27;;;-0.50;89.60;;;;;;4980961;28;20207;-83
2020/12/10 05:38:55;;;;;;;42.17;20.57;;;-0.50;89.60;;;;;;4983229;28;20200;-83
2020/12/10 05:41:25;;;;;;;41.47;20.87;;;-0.50;89.60;;;;;;4994892;28;20220;-84
2020/12/10 05:44:14;;;;;;;42.60;21.83;;;-0.50;89.60;;;;;;4989848;28;20199;-81
2020/12/10 05:46:45;;;;;;;44.70;21.17;;;-0.50;89.70;;;;;;4987895;28;20250;-83
2020/12/10 05:49:14;;;;;;;38.40;17.53;;;-0.40;89.70;;;;;;4975018;28;20221;-82
2020/12/10 05:51:44;;;;;;;41.00;20.63;;;-0.30;89.60;;;;;;4972995;28;20205;-82
2020/12/10 05:54:14;;;;;;;40.77;19.23;;;-0.40;89.60;;;;;;4982907;28;20190;-81
2020/12/10 05:56:55;;;;;;;42.47;20.27;;;-0.40;89.50;;;;;;4994230;28;20299;-83
2020/12/10 05:59:46;;;;;;;41.23;20.47;;;-0.40;89.50;;;;;;4973873;28;20380;-80
2020/12/10 06:02:18;;;;;;;43.60;20.80;;;-0.40;89.40;;;;;;4993525;28;20259;-83
2020/12/10 06:04:53;;;;;;;42.73;21.10;;;-0.40;89.40;;;;;;4993700;28;20489;-83
2020/12/10 06:07:21;;;;;;;26.97;12.97;;;-0.40;89.50;;;;;;5004178;28;20621;-82
2020/12/10 06:09:49;;;;;;;41.67;19.50;;;-0.40;89.30;;;;;;4988863;28;20272;-83
2020/12/10 06:12:23;;;;;;;36.27;17.37;;;-0.40;89.20;;;;;;4985380;28;20774;-83
2020/12/10 06:14:53;;;;;;;33.87;17.57;;;-0.40;89.20;;;;;;4984377;28;20623;-81
2020/12/10 06:17:23;;;;;;;39.77;20.07;;;-0.40;89.20;;;;;;4993276;28;20200;-82
2020/12/10 06:19:51;;;;;;;38.60;18.20;;;-0.40;89.40;;;;;;4989952;28;20202;-83
2020/12/10 06:22:47;;;;;;;39.03;18.90;;;-0.30;89.30;;;;;;4988236;28;20204;-82
2020/12/10 06:25:29;;;;;;;36.97;18.53;;;-0.30;89.30;;;;;;4990163;28;20205;-83
2020/12/10 06:28:19;;;;;;;36.83;18.40;;;-0.30;89.10;;;;;;4989123;28;20220;-83
2020/12/10 06:31:02;;;;;;;37.57;19.20;;;-0.40;89.10;;;;;;4992856;28;20201;-83
2020/12/10 06:33:36;;;;;;;38.40;19.40;;;-0.40;89.20;;;;;;4987916;28;20214;-82
2020/12/10 06:36:24;;;;;;;32.67;17.27;;;-0.40;89.10;;;;;;4988478;28;20205;-83
2020/12/10 06:38:57;;;;;;;35.67;18.03;;;-0.30;89.00;;;;;;4989250;28;20211;-82
2020/12/10 06:41:25;;;;;;;35.57;16.17;;;-0.30;89.00;;;;;;4988177;28;20207;-81
2020/12/10 06:43:54;;;;;;;20.10;10.57;;;-0.30;89.00;;;;;;4989738;28;20201;-82
2020/12/10 06:46:24;;;;;;;40.10;19.33;;;-0.30;88.90;;;;;;4975233;28;20308;-83
2020/12/10 06:48:56;;;;;;;26.63;15.03;;;-0.30;89.00;;;;;;4980090;28;20201;-83
2020/12/10 06:51:24;;;;;;;40.03;19.77;;;-0.30;88.80;;;;;;4978953;28;20214;-81
2020/12/10 06:54:11;;;;;;;36.20;18.53;;;-0.30;88.80;;;;;;4988514;28;20209;-81
2020/12/10 06:57:10;;;;;;;31.93;17.73;;;-0.30;88.90;;;;;;4978789;28;20312;-82
2020/12/10 06:59:40;;;;;;;39.73;18.90;;;-0.30;88.80;;;;;;4975899;28;20205;-80
2020/12/10 07:02:12;;;;;;;33.37;18.97;;;-0.30;88.80;;;;;;4987474;28;20217;-82
2020/12/10 07:04:48;;;;;;;38.70;19.53;;;-0.30;88.90;;;;;;4981876;28;20195;-82
2020/12/10 07:07:25;;;;;;;35.90;18.07;;;-0.20;89.00;;;;;;4979017;28;20281;-84
2020/12/10 07:09:56;;;;;;;33.93;17.20;;;-0.30;88.80;;;;;;4982920;28;20205;-83
2020/12/10 07:12:37;;;;;;;30.97;16.90;;;-0.20;88.70;;;;;;4990352;28;20209;-83
2020/12/10 07:15:12;;;;;;;33.40;18.63;;;-0.20;88.60;;;;;;4988078;28;20189;-82
2020/12/10 07:17:40;;;;;;;37.47;18.27;;;-0.20;88.50;;;;;;4997950;28;20200;-81
2020/12/10 07:20:22;;;;;;;34.83;18.03;;;-0.20;88.60;;;;;;4999675;28;20496;-83
2020/12/10 07:22:49;;;;;;;23.93;13.63;;;-0.20;88.70;;;;;;4979802;28;20500;-80
2020/12/10 07:25:17;;;;;;;31.57;17.73;;;-0.20;88.50;;;;;;4986135;28;20346;-83
2020/12/10 07:27:45;;;;;;;32.27;16.27;;;-0.20;88.50;;;;;;4999634;28;20217;-80
2020/12/10 07:30:14;;;;;;;30.73;15.37;;;-0.30;88.50;;;;;;4989534;28;20224;-84
2020/12/10 07:32:44;;;;;;;35.83;18.53;;;-0.30;88.40;;;;;;4994263;28;20196;-83
2020/12/10 07:35:12;;;;;;;31.40;17.30;;;-0.30;88.50;;;;;;4991817;28;20428;-82
2020/12/10 07:37:42;;;;;;;29.40;16.43;;;-0.30;88.60;;;;;;4967671;28;21180;-83
2020/12/10 07:40:11;;;;;;;33.93;17.77;;;-0.30;88.70;;;;;;4968797;28;20213;-83
2020/12/10 07:42:40;;;;;;;31.80;18.20;;;-0.30;88.70;;;;;;4973635;28;20288;-83
2020/12/10 07:45:13;;;;;;;36.83;18.87;;;-0.30;88.70;;;;;;4962498;28;20429;-83
2020/12/10 07:47:41;;;;;;;35.47;18.90;;;-0.30;88.90;;;;;;4961753;28;20226;-85
2020/12/10 07:50:21;;;;;;;31.47;17.40;;;-0.20;88.70;;;;;;4969277;28;20212;-82
2020/12/10 07:52:53;;;;;;;26.13;12.70;;;-0.20;88.70;;;;;;4985719;28;20449;-83
2020/12/10 07:55:26;;;;;;;28.03;14.77;;;-0.20;88.50;;;;;;4965845;28;20208;-83
2020/12/10 07:58:01;;;;;;;23.17;10.17;;;-0.20;88.60;;;;;;4973827;28;20208;-84
2020/12/10 08:00:30;;;;;;;23.30;14.07;;;-0.20;88.50;;;;;;4969842;28;21117;-83
2020/12/10 08:03:05;;;;;;;34.03;17.43;;;-0.20;88.50;;;;;;4979883;28;20205;-83
2020/12/10 08:05:34;;;;;;;36.23;16.77;;;-0.20;88.50;;;;;;4971380;28;20216;-84
2020/12/10 08:08:09;;;;;;;30.23;14.97;;;-0.10;88.60;;;;;;4973947;28;20802;-83
2020/12/10 08:10:39;;;;;;;29.57;15.80;;;-0.10;88.60;;;;;;4979614;28;20208;-81
2020/12/10 08:13:17;;;;;;;29.73;16.40;;;-0.10;88.40;;;;;;4971683;28;20759;-84
2020/12/10 08:15:46;;;;;;;24.70;14.70;;;-0.10;88.40;;;;;;4965131;28;20287;-81
2020/12/10 08:18:18;;;;;;;23.40;12.93;;;-0.10;88.50;;;;;;4967906;28;20647;-83
2020/12/10 08:21:06;;;;;;;28.70;16.97;;;-0.10;88.40;;;;;;4972531;28;20467;-80
2020/12/10 08:23:49;;;;;;;25.90;15.53;;;-0.10;88.50;;;;;;4974738;28;20268;-83
2020/12/10 08:26:30;;;;;;;23.03;13.17;;;-0.10;88.70;;;;;;4978162;28;20204;-84
2020/12/10 08:29:28;;;;;;;23.53;13.87;;;-0.10;88.60;;;;;;4926314;28;20292;-81
2020/12/10 08:32:08;;;;;;;23.43;13.70;;;-0.10;88.50;;;;;;4925645;28;20231;-84
2020/12/10 08:34:37;;;;;;;18.93;11.60;;;-0.10;88.50;;;;;;4927466;28;20474;-83
2020/12/10 08:37:06;;;;;;;21.33;13.03;;;-0.10;88.50;;;;;;4926091;28;20257;-81
2020/12/10 08:39:43;;;;;;;18.70;12.70;;;-0.10;88.40;;;;;;4921892;28;20215;-84
2020/12/10 08:42:18;;;;;;;19.43;12.43;;;-0.10;88.50;;;;;;4916675;29;20293;-81
2020/12/10 08:44:47;;;;;;;24.73;14.33;;;-0.20;88.50;;;;;;4933578;28;20308;-83
2020/12/10 08:47:47;;;;;;;23.83;13.83;;;-0.10;88.60;;;;;;4942032;28;20254;-84
2020/12/10 08:50:24;;;;;;;16.73;8.67;;;-0.10;88.70;;;;;;4943925;28;20625;-84
2020/12/10 08:53:06;;;;;;;24.87;13.83;;;-0.10;88.90;;;;;;4944437;28;20556;-84
2020/12/10 08:55:42;;;;;;;24.00;13.87;;;-0.10;89.00;;;;;;4979624;28;20206;-83
2020/12/10 08:58:15;;;;;;;26.03;14.83;;;0.00;89.20;;;;;;4985984;28;20202;-82
2020/12/10 09:00:50;;;;;;;25.90;14.83;;;0.00;89.40;;;;;;4982121;28;20189;-83
2020/12/10 09:03:47;;;;;;;24.57;14.50;;;-0.10;89.50;;;;;;4977697;28;20496;-81
2020/12/10 09:06:31;;;;;;;21.67;11.27;;;0.00;89.60;;;;;;4988553;28;20207;-85
2020/12/10 09:09:12;;;;;;;25.97;14.30;;;0.00;89.60;;;;;;4982639;28;20221;-83
2020/12/10 09:11:45;;;;;;;22.63;13.17;;;0.00;89.80;;;;;;4971451;28;20215;-82
2020/12/10 09:14:14;;;;;;;22.90;14.23;;;0.00;89.80;;;;;;4976386;28;20605;-81
2020/12/10 09:16:43;;;;;;;26.13;14.83;;;0.00;90.00;;;;;;4980571;28;20211;-83
2020/12/10 09:19:11;;;;;;;28.20;16.03;;;0.00;90.20;;;;;;4982755;28;20212;-82
2020/12/10 09:21:54;;;;;;;26.63;14.77;;;0.00;90.30;;;;;;4975812;28;20980;-81
2020/12/10 09:24:34;;;;;;;32.00;16.57;;;0.00;90.40;;;;;;4970613;28;20201;-83
2020/12/10 09:27:21;;;;;;;28.37;16.20;;;0.00;90.50;;;;;;4975402;28;20261;-82
2020/12/10 09:29:49;;;;;;;29.33;15.97;;;0.00;90.60;;;;;;4969676;28;20603;-82
2020/12/10 09:32:36;;;;;;;29.87;16.07;;;0.00;90.80;;;;;;4969267;28;20239;-85
2020/12/10 09:35:07;;;;;;;32.27;16.87;;;0.10;90.80;;;;;;4979485;28;20202;-82
2020/12/10 09:37:41;;;;;;;19.90;12.73;;;-0.20;90.90;;;;;;4981785;28;20193;-84
2020/12/10 09:40:11;;;;;;;30.73;15.50;;;-0.10;91.10;;;;;;4977650;28;20202;-79
2020/12/10 09:42:42;;;;;;;28.53;17.30;;;-0.20;91.30;;;;;;4968951;28;20377;-81
2020/12/10 09:45:14;;;;;;;30.37;15.07;;;-0.20;91.50;;;;;;4972387;28;20262;-83
2020/12/10 09:47:43;;;;;;;34.03;17.40;;;-0.40;91.60;;;;;;4972859;28;20219;-83
2020/12/10 09:50:19;;;;;;;30.50;14.50;;;-0.30;91.60;;;;;;4974620;28;20561;-82
2020/12/10 09:52:55;;;;;;;34.57;18.13;;;-0.30;91.70;;;;;;4965321;28;20215;-82
2020/12/10 09:55:39;;;;;;;27.50;13.37;;;-0.30;91.70;;;;;;4993120;28;20197;-81
2020/12/10 09:58:08;;;;;;;24.13;16.53;;;-0.30;91.80;;;;;;4982815;28;20207;-81
2020/12/10 10:00:36;;;;;;;34.60;19.03;;;-0.30;91.80;;;;;;4982641;28;20259;-84
2020/12/10 10:03:06;;;;;;;31.60;14.90;;;-0.40;91.80;;;;;;4995018;28;20205;-82
2020/12/10 10:06:11;;;;;;;30.60;17.90;;;-0.40;91.90;;;;;;4995297;28;20224;-80
2020/12/10 10:08:59;;;;;;;27.47;14.20;;;-0.30;91.90;;;;;;4975814;28;20233;-81
2020/12/10 10:11:30;;;;;;;30.73;15.63;;;-0.40;91.80;;;;;;4966115;28;20331;-81
2020/12/10 10:14:13;;;;;;;46.47;21.30;;;-0.40;91.90;;;;;;4906176;29;20328;-83
2020/12/10 10:17:05;;;;;;;28.13;17.37;;;-0.30;91.90;;;;;;4900044;29;20282;-82
2020/12/10 10:19:33;;;;;;;46.73;22.93;;;-0.40;91.90;;;;;;4936183;28;20377;-82
2020/12/10 10:22:02;;;;;;;37.23;18.73;;;-0.40;91.80;;;;;;4919944;29;20552;-81
2020/12/10 10:24:30;;;;;;;31.93;15.97;;;-0.40;91.90;;;;;;4935355;28;20493;-83
2020/12/10 10:26:58;;;;;;;44.67;20.73;;;-0.40;91.90;;;;;;4933056;28;20328;-80
2020/12/10 10:29:27;;;;;;;48.20;22.87;;;-0.40;91.90;;;;;;4937037;28;20222;-82
2020/12/10 10:31:55;;;;;;;49.90;22.17;;;-0.40;91.90;;;;;;4913822;29;20215;-81
2020/12/10 10:34:22;;;;;;;41.37;16.40;;;-0.40;91.90;;;;;;4928120;28;20210;-81
2020/12/10 10:36:51;;;;;;;32.33;17.17;;;-0.30;91.90;;;;;;4933307;28;20217;-83
2020/12/10 10:39:19;;;;;;;42.17;21.33;;;-0.30;91.90;;;;;;4917208;29;20216;-82
2020/12/10 10:41:49;;;;;;;45.17;22.90;;;-0.30;92.00;;;;;;4932159;28;20198;-81
2020/12/10 10:44:19;;;;;;;56.83;24.13;;;-0.30;91.90;;;;;;4905890;29;20207;-81
2020/12/10 10:46:47;;;;;;;48.03;23.17;;;-0.40;91.90;;;;;;4906609;29;20295;-80
2020/12/10 10:49:30;;;;;;;47.40;22.40;;;-0.30;91.90;;;;;;4916898;29;20291;-82
2020/12/10 10:51:58;;;;;;;31.40;15.63;;;-0.30;91.90;;;;;;4967574;28;20350;-79
2020/12/10 10:54:25;;;;;;;33.13;15.90;;;-0.40;92.00;;;;;;4977192;28;20544;-82
2020/12/10 10:57:25;;;;;;;33.93;16.07;;;-0.30;91.90;;;;;;4974243;28;20244;-81
2020/12/10 10:59:52;;;;;;;36.33;16.13;;;-0.30;91.90;;;;;;4971677;28;20196;-82
2020/12/10 11:02:25;;;;;;;44.23;22.33;;;-0.30;91.90;;;;;;4983178;28;20197;-80
2020/12/10 11:05:03;;;;;;;33.77;14.80;;;-0.30;91.90;;;;;;4985723;28;20280;-81
2020/12/10 11:07:30;;;;;;;34.47;15.67;;;-0.30;91.90;;;;;;4993022;28;20851;-80
2020/12/10 11:09:58;;;;;;;55.37;23.13;;;-0.40;91.90;;;;;;4968872;28;20204;-79
2020/12/10 11:12:26;;;;;;;31.23;17.00;;;-0.30;91.90;;;;;;4967091;28;20211;-81
2020/12/10 11:14:57;;;;;;;42.87;24.73;;;-0.30;91.90;;;;;;4976214;28;20213;-79
2020/12/10 11:17:25;;;;;;;42.43;18.63;;;-0.30;91.90;;;;;;4990421;28;20188;-79
2020/12/10 11:20:00;;;;;;;32.90;14.43;;;-0.10;91.90;;;;;;4984335;28;20204;-80
2020/12/10 11:22:28;;;;;;;29.97;16.83;;;-0.30;91.90;;;;;;4983424;28;20758;-81
2020/12/10 11:24:56;;;;;;;47.20;19.60;;;-0.30;91.90;;;;;;4978982;28;20228;-79
2020/12/10 11:27:24;;;;;;;54.90;24.93;;;-0.20;91.90;;;;;;4982162;28;20702;-78
2020/12/10 11:29:51;;;;;;;41.17;16.17;;;-0.30;91.90;;;;;;4980835;28;20408;-80
2020/12/10 11:32:19;;;;;;;43.87;19.13;;;0.00;92.00;;;;;;4979220;28;20288;-81
2020/12/10 11:34:47;;;;;;;39.00;16.13;;;-0.20;91.90;;;;;;4964685;28;20200;-78
2020/12/10 11:37:15;;;;;;;35.93;16.90;;;-0.20;91.90;;;;;;4982145;28;20199;-79
2020/12/10 11:39:49;;;;;;;47.83;20.20;;;-0.20;91.90;;;;;;4967555;28;20287;-82
2020/12/10 11:42:17;;;;;;;56.17;24.67;;;-0.20;91.90;;;;;;4957351;28;20515;-81
2020/12/10 11:44:45;;;;;;;35.23;16.93;;;-0.20;91.90;;;;;;4975377;28;20781;-78
2020/12/10 11:47:32;;;;;;;55.67;22.90;;;-0.10;92.00;;;;;;4975714;28;20389;-79
2020/12/10 11:50:01;;;;;;;53.60;23.60;;;-0.20;92.00;;;;;;4963440;28;20205;-79
2020/12/10 11:52:28;;;;;;;38.03;17.23;;;-0.20;91.90;;;;;;4979461;28;20299;-79
2020/12/10 11:54:56;;;;;;;56.17;24.63;;;-0.20;91.80;;;;;;4975934;28;20204;-78
2020/12/10 11:57:25;;;;;;;36.47;18.13;;;-0.20;91.80;;;;;;4975649;28;20208;-78
2020/12/10 11:59:53;;;;;;;38.43;18.03;;;-0.20;91.80;;;;;;4959481;28;20203;-78
2020/12/10 12:02:22;;;;;;;56.20;23.23;;;-0.20;91.80;;;;;;4966401;28;20407;-79
2020/12/10 12:04:51;;;;;;;47.73;18.83;;;-0.10;91.70;;;;;;4980970;28;20659;-81
2020/12/10 12:07:47;;;;;;;39.47;17.03;;;-0.10;91.70;;;;;;4945746;28;20696;-79
2020/12/10 12:10:16;;;;;;;40.23;18.50;;;-0.10;91.70;;;;;;4954239;28;20325;-82
2020/12/10 12:12:44;;;;;;;30.20;14.90;;;-0.10;91.70;;;;;;4945851;28;20270;-81
2020/12/10 12:15:12;;;;;;;31.87;16.40;;;-0.10;91.70;;;;;;4942789;28;21035;-77
2020/12/10 12:17:40;;;;;;;38.50;16.97;;;-0.10;91.60;;;;;;4949618;28;20731;-80
2020/12/10 12:20:31;;;;;;;56.77;24.87;;;-0.10;91.50;;;;;;4948071;28;20207;-81
2020/12/10 12:23:08;;;;;;;56.93;21.30;;;-0.10;91.50;;;;;;4931558;28;20774;-82
2020/12/10 12:25:36;;;;;;;41.93;17.40;;;-0.10;91.40;;;;;;4932094;28;20202;-81
2020/12/10 12:28:04;;;;;;;42.77;19.30;;;-0.10;91.40;;;;;;4949828;28;20559;-80
2020/12/10 12:30:34;;;;;;;29.83;15.87;;;-0.10;91.40;;;;;;4945732;28;20210;-83
2020/12/10 12:33:22;;;;;;;32.73;15.97;;;-0.10;91.60;;;;;;4938973;28;20563;-81
2020/12/10 12:35:51;;;;;;;49.20;24.10;;;-0.10;91.80;;;;;;4949073;28;20694;-81
2020/12/10 12:38:20;;;;;;;40.13;17.83;;;-0.10;91.80;;;;;;4940833;28;20250;-80
2020/12/10 12:41:03;;;;;;;56.53;23.60;;;-0.10;91.90;;;;;;4917605;28;20214;-82
2020/12/10 12:43:31;;;;;;;42.40;19.30;;;-0.20;91.90;;;;;;4928766;28;20233;-80
2020/12/10 12:46:25;;;;;;;49.23;24.07;;;-0.20;91.90;;;;;;4899797;29;20279;-81
2020/12/10 12:48:54;;;;;;;41.50;19.57;;;-0.20;92.00;;;;;;4905824;29;20238;-77
2020/12/10 12:51:22;;;;;;;20.63;12.27;;;0.00;92.10;;;;;;4907044;29;20411;-79